Flight Track Log - Related Links

Times and Time Zones

All times are in EDT time to prevent confusion due to time zone crossing. See the DAL268 flight status page for this flight to view local times or setup timezone preferences in your user account.

Time Position Orientation Groundspeed Altitude Reporting Facility
EDT Latitude Longitude Course Direction KTS MPH feet Rate Location/Type
Thu 02:30:14 PM 37.6110 -122.3840 North 10 12  Level FlightAware ADS-B
Thu 02:33:15 PM 37.6100 -122.3840 180° South 2 2 10 Level FlightAware ADS-B
Thu 02:35:00 PM 37.6846 -122.1295 67° East  Level FlightAware Approximate
Thu 02:36:00 PM 37.7368 -121.9906 65° Northeast  Level FlightAware Approximate
Thu 02:37:00 PM 37.7877 -121.8506 65° Northeast  Level FlightAware Approximate
Thu 02:37:44 PM 37.6080 -122.3850 65° Northeast 13 15  Level FlightAware ADS-B
Thu 02:38:24 PM 37.6080 -122.3840 90° East 16 Level FlightAware ADS-B
Thu 02:40:58 PM 37.6070 -122.3840 63° Northeast 17 Level FlightAware ADS-B
Thu 02:41:00 PM 37.7288 -122.0113 63° Northeast  Level FlightAware Approximate
Thu 02:41:58 PM 37.6060 -122.3830 142° Southeast 10 12  Level FlightAware ADS-B
Thu 02:43:45 PM 37.6060 -122.3820 90° East 10 12 25 Level FlightAware ADS-B
Thu 02:46:00 PM 37.7101 -122.0582 63° Northeast  Level FlightAware Approximate
Thu 02:46:05 PM 37.6060 -122.3810 63° Northeast 15 17  Level FlightAware ADS-B
Thu 02:47:06 PM 37.6070 -122.3810 360° North 51 Level FlightAware ADS-B
Thu 02:49:00 PM 37.6924 -122.1061 67° East  Level FlightAware Approximate
Thu 02:49:28 PM 37.6080 -122.3800 67° East 58 67  Level FlightAware ADS-B
Thu 02:50:00 PM 37.6250 -122.3690 27° Northeast 162 186 200 947 Climbing FlightAware ADS-B
Thu 02:50:06 PM 37.6294 -122.3660 28° Northeast 161 185 600 2,769 Climbing FlightAware ADS-B
Thu 02:50:13 PM 37.6341 -122.3620 34° Northeast 166 191 800 1,500 Climbing FlightAware ADS-B
Thu 02:50:18 PM 37.6376 -122.3590 34° Northeast 175 201 900 1,636 Climbing FlightAware ADS-B
Thu 02:50:24 PM 37.6411 -122.3550 42° Northeast 188 216 1,100 1,909 Climbing FlightAware ADS-B
Thu 02:50:40 PM 37.6509 -122.3420 46° Northeast 202 232 1,600 1,935 Climbing FlightAware ADS-B
Thu 02:50:55 PM 37.6614 -122.3280 47° Northeast 221 254 2,100 2,129 Climbing FlightAware ADS-B
Thu 02:51:11 PM 37.6733 -122.3130 45° Northeast 237 273 2,700 2,129 Climbing FlightAware ADS-B
Thu 02:51:26 PM 37.6851 -122.2980 45° Northeast 257 296 3,200 2,600 Climbing FlightAware ADS-B
Thu 02:51:41 PM 37.6978 -122.2810 47° Northeast 262 302 4,000 3,243 Climbing FlightAware ADS-B
Thu 02:52:03 PM 37.7156 -122.2560 48° Northeast 262 302 5,200 3,220 Climbing FlightAware ADS-B
Thu 02:52:22 PM 37.7319 -122.2340 47° Northeast 272 313 6,200 3,176 Climbing FlightAware ADS-B
Thu 02:52:37 PM 37.7451 -122.2160 47° Northeast 277 319 7,000 3,188 Climbing FlightAware ADS-B
Thu 02:52:54 PM 37.7600 -122.1950 48° Northeast 281 323 7,900 2,909 Climbing FlightAware ADS-B
Thu 02:53:10 PM 37.7738 -122.1760 47° Northeast 287 330 8,600 2,880 Climbing FlightAware ADS-B
Thu 02:53:19 PM 37.7806 -122.1640 54° Northeast 288 331 9,100 3,600 Climbing FlightAware ADS-B
Thu 02:53:25 PM 37.7844 -122.1560 59° Northeast 289 333 9,500 2,842 Climbing FlightAware ADS-B
Thu 02:53:38 PM 37.7903 -122.1340 71° East 292 336 10,000 2,444 Climbing FlightAware ADS-B
Thu 02:53:52 PM 37.7955 -122.1100 75° East 306 352 10,600 2,000 Climbing FlightAware ADS-B
Thu 02:54:23 PM 37.8110 -122.0570 70° East 331 381 11,500 1,548 Climbing FlightAware ADS-B
Thu 02:54:54 PM 37.8284 -121.9960 70° East 369 425 12,200 1,355 Climbing FlightAware ADS-B
Thu 02:55:25 PM 37.8455 -121.9290 72° East 394 453 12,900 1,742 Climbing FlightAware ADS-B
Thu 02:55:56 PM 37.8626 -121.8610 72° East 409 471 14,000 2,164 Climbing FlightAware ADS-B
Thu 02:56:26 PM 37.8801 -121.7900 73° East 420 483 15,100 2,200 Climbing FlightAware ADS-B
Thu 02:56:56 PM 37.8980 -121.7190 72° East 429 494 16,200 2,200 Climbing FlightAware ADS-B
Thu 02:57:26 PM 37.9161 -121.6460 73° East 436 502 17,300 2,066 Climbing FlightAware ADS-B
Thu 02:57:57 PM 37.9348 -121.5710 72° East 446 513 18,300 1,672 Climbing FlightAware ADS-B
Thu 02:58:27 PM 37.9537 -121.4950 72° East 455 524 19,000 1,500 Climbing FlightAware ADS-B
Thu 02:58:57 PM 37.9729 -121.4180 72° East 458 527 19,800 1,672 Climbing FlightAware ADS-B
Thu 02:59:28 PM 37.9924 -121.3390 73° East 463 533 20,700 1,667 Climbing FlightAware ADS-B
Thu 03:00:09 PM 38.0185 -121.2320 73° East 476 548 21,800 1,744 Climbing FlightAware ADS-B
Thu 03:00:54 PM 38.0430 -121.1080 76° East 484 557 23,200 1,671 Climbing FlightAware ADS-B
Thu 03:01:28 PM 38.0620 -121.0130 76° East 493 567 24,000 1,500 Climbing FlightAware ADS-B
Thu 03:02:18 PM 38.0870 -120.8760 77° East 503 579 25,300 1,500 Climbing FlightAware ADS-B
Thu 03:02:56 PM 38.1080 -120.7620 77° East 509 586 26,200 1,463 Climbing FlightAware ADS-B
Thu 03:03:40 PM 38.1310 -120.6350 77° East 516 594 27,300 1,295 Climbing FlightAware ADS-B
Thu 03:04:24 PM 38.1550 -120.5030 77° East 525 604 28,100 1,229 Climbing FlightAware ADS-B
Thu 03:05:03 PM 38.1750 -120.3910 77° East 529 609 29,000 1,000 Climbing FlightAware ADS-B
Thu 03:06:00 PM 38.1920 -120.3010 76° East 529 609 29,700 1,545 Climbing FlightAware ADS-B
Thu 03:06:44 PM 38.2310 -120.0800 77° East 527 606 31,600 2,233 Climbing FlightAware ADS-B
Thu 03:07:26 PM 38.2530 -119.9540 77° East 520 598 32,900 1,588 Climbing FlightAware ADS-B
Thu 03:08:26 PM 38.2840 -119.7780 77° East 516 594 34,300 1,347 Climbing FlightAware ADS-B
Thu 03:09:04 PM 38.3040 -119.6630 77° East 514 592 35,100 1,317 Climbing FlightAware ADS-B
Thu 03:09:48 PM 38.3260 -119.5340 78° East 512 589 36,100 1,171 Climbing FlightAware ADS-B
Thu 03:10:26 PM 38.3450 -119.4210 78° East 514 592 36,700 283 Climbing FlightAware ADS-B
Thu 03:11:55 PM 38.3620 -119.3280 77° East 514 592 36,700 143 Level FlightAware ADS-B
Thu 03:12:32 PM 38.4010 -119.0490 80° East 520 598 37,000 222 Climbing FlightAware ADS-B
Thu 03:13:16 PM 38.4230 -118.9190 78° East 522 601 37,000  Level FlightAware ADS-B
Thu 03:13:56 PM 38.4430 -118.7970 78° East 522 601 37,000  Level FlightAware ADS-B
Thu 03:14:34 PM 38.4610 -118.6820 79° East 523 602 37,000  Level FlightAware ADS-B
Thu 03:15:24 PM 38.4860 -118.5290 78° East 525 604 37,000  Level FlightAware ADS-B
Thu 03:16:06 PM 38.5060 -118.4030 78° East 526 605 37,000  Level FlightAware ADS-B
Thu 03:16:42 PM 38.5240 -118.2940 78° East 528 608 37,000  Level FlightAware ADS-B
Thu 03:17:30 PM 38.5470 -118.1480 79° East 529 609 37,000  Level FlightAware ADS-B
Thu 03:18:14 PM 38.5680 -118.0110 79° East 530 610 37,000  Level FlightAware ADS-B
Thu 03:18:51 PM 38.5840 -117.9140 78° East 530 610 37,000  Level FlightAware ADS-B
Thu 03:19:39 PM 38.6050 -117.7890 78° East 530 610 37,000  Level FlightAware ADS-B
Thu 03:20:15 PM 38.6200 -117.6950 78° East 530 610 37,000  Level FlightAware ADS-B
Thu 03:20:53 PM 38.6370 -117.5960 78° East 530 610 37,000  Level FlightAware ADS-B
Thu 03:21:41 PM 38.6580 -117.4710 78° East 530 610 37,000  Level FlightAware ADS-B
Thu 03:22:41 PM 38.6840 -117.3140 78° East 530 610 37,000  Level FlightAware ADS-B
Thu 03:23:16 PM 38.6990 -117.2230 78° East 530 610 37,000  Level FlightAware ADS-B
Thu 03:24:04 PM 38.7200 -117.0970 78° East 530 610 37,000  Level FlightAware ADS-B
Thu 03:24:38 PM 38.7340 -117.0080 79° East 530 610 37,000  Level FlightAware ADS-B
Thu 03:25:29 PM 38.7560 -116.8750 78° East 530 610 37,000  Level FlightAware ADS-B
Thu 03:26:05 PM 38.7720 -116.7810 78° East 530 610 37,000  Level FlightAware ADS-B
Thu 03:27:06 PM 38.7980 -116.6210 78° East 530 610 37,000  Level FlightAware ADS-B
Thu 03:27:43 PM 38.8140 -116.5250 78° East 530 610 37,000  Level FlightAware ADS-B
Thu 03:28:13 PM 38.8500 -116.1631 78° East 537 618 37,000  Level Oakland Center
Thu 03:28:54 PM 38.8653 -116.0486 80° East 539 620 37,000  Level Salt Lake Center
Thu 03:29:56 PM 38.8906 -115.8597 80° East 539 620 37,000  Level Salt Lake Center
Thu 03:30:58 PM 38.9169 -115.6706 80° East 538 619 37,000  Level Salt Lake Center
Thu 03:32:00 PM 38.9475 -115.4431 80° East 540 621 37,000  Level Salt Lake Center
Thu 03:33:02 PM 38.9736 -115.2511 80° East 539 620 37,000  Level Salt Lake Center
Thu 03:34:04 PM 38.9978 -115.0678 80° East 543 625 37,000  Level Salt Lake Center
Thu 03:35:06 PM 39.0256 -114.8542 80° East 546 628 37,000  Level Salt Lake Center
Thu 03:36:08 PM 39.0511 -114.6556 81° East 541 623 37,000  Level Salt Lake Center
Thu 03:37:10 PM 39.0747 -114.4661 81° East 536 617 37,000  Level Salt Lake Center
Thu 03:38:12 PM 39.0986 -114.2742 81° East 541 623 37,000  Level Salt Lake Center
Thu 03:39:14 PM 39.1217 -114.0856 81° East 536 617 37,000  Level Salt Lake Center
Thu 03:40:16 PM 39.1456 -113.8983 81° East 530 610 37,000  Level Salt Lake Center
Thu 03:41:18 PM 39.1669 -113.7106 82° East 533 613 37,000  Level Salt Lake Center
Thu 03:42:20 PM 39.1883 -113.5211 82° East 535 616 37,000  Level Salt Lake Center
Thu 03:43:22 PM 39.2156 -113.2936 81° East 538 619 37,000  Level Salt Lake Center
Thu 03:44:24 PM 39.2369 -113.1050 82° East 535 616 37,000  Level Salt Lake Center
Thu 03:45:26 PM 39.2578 -112.9181 82° East 531 611 37,000  Level Salt Lake Center
Thu 03:46:28 PM 39.2783 -112.7314 82° East 530 610 37,000  Level Salt Lake Center
Thu 03:47:30 PM 39.2994 -112.5481 81° East 524 603 37,000  Level Salt Lake Center
Thu 03:48:32 PM 39.3678 -112.3411 67° East 527 606 37,000  Level Salt Lake Center
Thu 03:54:15 PM 39.7190 -111.3590 67° East 524 603 37,000  Level FlightAware ADS-B
Thu 03:55:01 PM 39.7650 -111.2290 65° Northeast 524 603 37,000  Level FlightAware ADS-B
Thu 03:55:58 PM 39.8070 -111.1120 65° Northeast 526 605 37,000  Level FlightAware ADS-B
Thu 03:56:33 PM 39.8590 -110.9630 66° East 526 605 37,000  Level FlightAware ADS-B
Thu 03:57:16 PM 39.9020 -110.8420 65° Northeast 525 604 37,000  Level FlightAware ADS-B
Thu 03:58:03 PM 39.9460 -110.7150 66° East 525 604 37,000  Level FlightAware ADS-B
Thu 03:58:44 PM 39.9910 -110.5870 65° Northeast 526 605 37,000  Level FlightAware ADS-B
Thu 03:59:25 PM 40.0320 -110.4670 66° East 525 604 37,000  Level FlightAware ADS-B
Thu 04:00:08 PM 40.0700 -110.3570 66° East 525 604 37,000  Level FlightAware ADS-B
Thu 04:00:48 PM 40.1120 -110.2360 66° East 524 603 37,000  Level FlightAware ADS-B
Thu 04:01:28 PM 40.1530 -110.1110 67° East 521 600 37,000  Level FlightAware ADS-B
Thu 04:02:08 PM 40.1870 -109.9980 68° East 521 600 37,000  Level FlightAware ADS-B
Thu 04:02:56 PM 40.2290 -109.8530 69° East 519 597 37,000  Level FlightAware ADS-B
Thu 04:03:40 PM 40.2670 -109.7230 69° East 520 598 37,000  Level FlightAware ADS-B
Thu 04:04:19 PM 40.2990 -109.6100 70° East 522 601 37,000  Level FlightAware ADS-B
Thu 04:05:02 PM 40.3360 -109.4830 69° East 523 602 37,000  Level FlightAware ADS-B
Thu 04:05:28 PM 40.3580 -109.4050 70° East 523 602 37,000  Level FlightAware ADS-B
Thu 04:06:10 PM 40.3940 -109.2800 69° East 522 601 37,000  Level FlightAware ADS-B
Thu 04:06:55 PM 40.4320 -109.1440 70° East 523 602 37,000  Level FlightAware ADS-B
Thu 04:07:35 PM 40.4660 -109.0260 69° East 523 602 37,000  Level FlightAware ADS-B
Thu 04:08:18 PM 40.5010 -108.9010 70° East 523 602 37,000  Level FlightAware ADS-B
Thu 04:09:00 PM 40.5370 -108.7740 70° East 523 602 37,000  Level FlightAware ADS-B
Thu 04:09:40 PM 40.5700 -108.6560 70° East 522 601 37,000  Level FlightAware ADS-B
Thu 04:10:10 PM 40.5940 -108.5670 70° East 522 601 37,000  Level FlightAware ADS-B
Thu 04:10:51 PM 40.6270 -108.4470 70° East 520 598 37,000  Level FlightAware ADS-B
Thu 04:11:42 PM 40.6460 -108.3790 70° East 521 600 37,000  Level FlightAware ADS-B
Thu 04:12:26 PM 40.7050 -108.1640 70° East 518 596 37,000  Level FlightAware ADS-B
Thu 04:13:04 PM 40.7350 -108.0540 70° East 519 597 37,000  Level FlightAware ADS-B
Thu 04:13:52 PM 40.7740 -107.9080 71° East 519 597 37,000  Level FlightAware ADS-B
Thu 04:14:32 PM 40.8070 -107.7870 70° East 520 598 37,000  Level FlightAware ADS-B
Thu 04:15:12 PM 40.8380 -107.6700 71° East 519 597 37,000  Level FlightAware ADS-B
Thu 04:15:54 PM 40.8710 -107.5450 71° East 517 595 37,000  Level FlightAware ADS-B
Thu 04:16:38 PM 40.9060 -107.4120 71° East 516 594 37,000  Level FlightAware ADS-B
Thu 04:17:17 PM 40.9350 -107.3020 71° East 516 594 37,000  Level FlightAware ADS-B
Thu 04:17:57 PM 40.9660 -107.1840 71° East 515 593 37,000  Level FlightAware ADS-B
Thu 04:18:45 PM 41.0050 -107.0350 71° East 517 595 37,000  Level FlightAware ADS-B
Thu 04:19:25 PM 41.0360 -106.9150 71° East 517 595 37,000  Level FlightAware ADS-B
Thu 04:20:07 PM 41.0680 -106.7920 71° East 517 595 37,000  Level FlightAware ADS-B
Thu 04:20:47 PM 41.0990 -106.6700 71° East 517 595 37,000  Level FlightAware ADS-B
Thu 04:21:31 PM 41.1330 -106.5400 71° East 520 598 37,000  Level FlightAware ADS-B
Thu 04:22:13 PM 41.1660 -106.4100 71° East 521 600 37,000  Level FlightAware ADS-B
Thu 04:22:55 PM 41.1980 -106.2840 71° East 517 595 37,000  Level FlightAware ADS-B
Thu 04:23:37 PM 41.2300 -106.1560 72° East 516 594 37,000  Level FlightAware ADS-B
Thu 04:24:17 PM 41.2590 -106.0390 72° East 517 595 37,000  Level FlightAware ADS-B
Thu 04:24:59 PM 41.2910 -105.9090 72° East 517 595 37,000  Level FlightAware ADS-B
Thu 04:25:44 PM 41.3250 -105.7750 71° East 518 596 37,000  Level FlightAware ADS-B
Thu 04:26:20 PM 41.3520 -105.6650 72° East 518 596 37,000  Level FlightAware ADS-B
Thu 04:27:10 PM 41.3910 -105.5140 71° East 519 597 37,000  Level FlightAware ADS-B
Thu 04:28:04 PM 41.4320 -105.3570 71° East 518 596 37,000  Level FlightAware ADS-B
Thu 04:28:44 PM 41.4640 -105.2310 71° East 516 594 37,000  Level FlightAware ADS-B
Thu 04:29:14 PM 41.4872 -105.1410 71° East 514 592 37,000  Level FlightAware ADS-B
Thu 04:29:45 PM 41.5110 -105.0470 71° East 517 595 37,000  Level FlightAware ADS-B
Thu 04:30:16 PM 41.5343 -104.9550 71° East 515 593 37,000  Level FlightAware ADS-B
Thu 04:30:48 PM 41.5583 -104.8590 71° East 512 589 37,000  Level FlightAware ADS-B
Thu 04:31:18 PM 41.5808 -104.7690 71° East 510 587 37,000  Level FlightAware ADS-B
Thu 04:31:54 PM 41.6072 -104.6630 72° East 508 585 37,000  Level FlightAware ADS-B
Thu 04:32:24 PM 41.6295 -104.5740 71° East 508 585 37,000  Level FlightAware ADS-B
Thu 04:32:54 PM 41.6517 -104.4840 72° East 508 585 37,000  Level FlightAware ADS-B
Thu 04:33:25 PM 41.6740 -104.3940 72° East 507 583 37,000  Level FlightAware ADS-B
Thu 04:33:56 PM 41.6966 -104.3020 72° East 507 583 37,000  Level FlightAware ADS-B
Thu 04:34:26 PM 41.7191 -104.2100 72° East 511 588 37,000  Level FlightAware ADS-B
Thu 04:34:57 PM 41.7413 -104.1190 72° East 513 590 37,000  Level FlightAware ADS-B
Thu 04:35:27 PM 41.7639 -104.0260 72° East 514 592 37,000  Level FlightAware ADS-B
Thu 04:35:58 PM 41.7864 -103.9330 72° East 515 593 37,000  Level FlightAware ADS-B
Thu 04:36:28 PM 41.8085 -103.8410 72° East 517 595 37,000  Level FlightAware ADS-B
Thu 04:36:59 PM 41.8305 -103.7490 72° East 517 595 37,000  Level FlightAware ADS-B
Thu 04:37:29 PM 41.8526 -103.6570 72° East 518 596 37,000  Level FlightAware ADS-B
Thu 04:38:00 PM 41.8752 -103.5620 72° East 518 596 37,000  Level FlightAware ADS-B
Thu 04:38:26 PM 41.8922 -103.4810 74° East 516 594 37,000  Level FlightAware ADS-B
Thu 04:38:49 PM 41.9044 -103.4090 77° East 515 593 37,000  Level FlightAware ADS-B
Thu 04:39:20 PM 41.9180 -103.3140 79° East 514 592 37,000  Level FlightAware ADS-B
Thu 04:39:51 PM 41.9316 -103.2170 79° East 514 592 37,000  Level FlightAware ADS-B
Thu 04:40:21 PM 41.9447 -103.1230 79° East 514 592 37,000  Level FlightAware ADS-B
Thu 04:40:52 PM 41.9580 -103.0270 79° East 513 590 37,000  Level FlightAware ADS-B
Thu 04:41:22 PM 41.9709 -102.9330 80° East 513 590 37,000  Level FlightAware ADS-B
Thu 04:41:52 PM 41.9838 -102.8380 80° East 513 590 37,000  Level FlightAware ADS-B
Thu 04:42:33 PM 42.0013 -102.7090 80° East 512 589 37,000  Level FlightAware ADS-B
Thu 04:43:05 PM 42.0145 -102.6110 80° East 511 588 37,000  Level FlightAware ADS-B
Thu 04:43:37 PM 42.0282 -102.5090 80° East 511 588 37,000  Level FlightAware ADS-B
Thu 04:44:08 PM 42.0410 -102.4130 80° East 510 587 37,000  Level FlightAware ADS-B
Thu 04:44:41 PM 42.0546 -102.3100 80° East 509 586 37,000  Level FlightAware ADS-B
Thu 04:45:25 PM 42.0723 -102.1740 80° East 508 585 37,000  Level FlightAware ADS-B
Thu 04:46:41 PM 42.1025 -101.9400 80° East 508 585 37,000  Level FlightAware ADS-B
Thu 04:47:19 PM 42.1164 -101.8422 80° East 509 586 37,000  Level Denver Center
Thu 04:48:21 PM 42.1414 -101.6350 81° East 504 580 37,000  Level Denver Center
Thu 04:49:23 PM 42.1633 -101.4581 80° East 499 574 37,000  Level Denver Center
Thu 04:50:26 PM 42.1900 -101.2483 80° East 506 582 37,000  Level Denver Center
Thu 04:51:28 PM 42.2103 -101.0719 81° East 499 574 37,000  Level Denver Center
Thu 04:52:30 PM 42.2308 -100.8956 81° East 497 572 37,000  Level Denver Center
Thu 04:53:32 PM 42.2550 -100.6875 81° East 501 577 37,000  Level Denver Center
Thu 04:54:34 PM 42.2758 -100.5089 81° East 502 578 37,000  Level Denver Center
Thu 04:55:36 PM 42.3000 -100.3036 81° East 497 572 37,000  Level Denver Center
Thu 04:56:21 PM 42.3158 -100.1606 81° East 497 572 37,000  Level Minneapolis Center
Thu 04:57:23 PM 42.3364 -99.9753 81° East 497 572 37,000  Level Minneapolis Center
Thu 04:58:25 PM 42.3564 -99.7903 82° East 497 572 37,000  Level Minneapolis Center
Thu 04:59:27 PM 42.3767 -99.6047 82° East 498 573 37,000  Level Minneapolis Center
Thu 05:00:30 PM 42.3969 -99.4192 82° East 498 573 37,000  Level Minneapolis Center
Thu 05:01:32 PM 42.4156 -99.2344 82° East 496 571 37,000  Level Minneapolis Center
Thu 05:02:34 PM 42.4342 -99.0497 82° East 494 568 37,000  Level Minneapolis Center
Thu 05:03:36 PM 42.4575 -98.8278 82° East 495 570 37,000  Level Minneapolis Center
Thu 05:04:38 PM 42.4739 -98.6431 83° East 494 568 37,000  Level Minneapolis Center
Thu 05:05:40 PM 42.4833 -98.4586 86° East 491 565 37,000  Level Minneapolis Center
Thu 05:06:42 PM 42.4917 -98.2725 86° East 493 567 37,000  Level Minneapolis Center
Thu 05:12:11 PM 42.5350 -97.2460 86° East 486 559 37,000  Level FlightAware ADS-B
Thu 05:12:53 PM 42.5400 -97.1160 87° East 487 560 37,000  Level FlightAware ADS-B
Thu 05:13:37 PM 42.5450 -96.9860 87° East 488 562 37,000  Level FlightAware ADS-B
Thu 05:14:17 PM 42.5490 -96.8640 87° East 488 562 37,000  Level FlightAware ADS-B
Thu 05:15:01 PM 42.5540 -96.7270 87° East 487 560 37,000  Level FlightAware ADS-B
Thu 05:15:41 PM 42.5580 -96.6050 87° East 487 560 37,000  Level FlightAware ADS-B
Thu 05:16:27 PM 42.5630 -96.4670 87° East 486 559 37,000  Level FlightAware ADS-B
Thu 05:17:07 PM 42.5670 -96.3440 87° East 486 559 37,000  Level FlightAware ADS-B
Thu 05:17:49 PM 42.5700 -96.2180 88° East 486 559 37,000  Level FlightAware ADS-B
Thu 05:18:29 PM 42.5740 -96.0960 87° East 485 558 37,000  Level FlightAware ADS-B
Thu 05:19:12 PM 42.5780 -95.9680 88° East 484 557 37,000  Level FlightAware ADS-B
Thu 05:19:49 PM 42.5810 -95.8520 88° East 484 557 37,000  Level FlightAware ADS-B
Thu 05:20:39 PM 42.5840 -95.7030 88° East 482 555 37,000  Level FlightAware ADS-B
Thu 05:21:15 PM 42.5870 -95.5940 88° East 483 556 37,000  Level FlightAware ADS-B
Thu 05:22:01 PM 42.5900 -95.4550 88° East 481 554 37,000  Level FlightAware ADS-B
Thu 05:22:45 PM 42.5930 -95.3260 88° East 480 552 37,000  Level FlightAware ADS-B
Thu 05:23:21 PM 42.5960 -95.2150 88° East 479 551 37,000  Level FlightAware ADS-B
Thu 05:24:03 PM 42.5980 -95.1140 88° East 478 550 37,000  Level FlightAware ADS-B
Thu 05:24:47 PM 42.6010 -94.9560 88° East 477 549 37,000  Level FlightAware ADS-B
Thu 05:25:13 PM 42.6020 -94.8800 89° East 477 549 37,000  Level FlightAware ADS-B
Thu 05:25:55 PM 42.6040 -94.7540 89° East 478 550 37,000  Level FlightAware ADS-B
Thu 05:26:40 PM 42.6070 -94.6220 88° East 478 550 37,000  Level FlightAware ADS-B
Thu 05:27:19 PM 42.6080 -94.5060 89° East 478 550 37,000  Level FlightAware ADS-B
Thu 05:28:05 PM 42.6100 -94.3670 89° East 479 551 37,000  Level FlightAware ADS-B
Thu 05:28:49 PM 42.6120 -94.2350 89° East 479 551 37,000  Level FlightAware ADS-B
Thu 05:29:27 PM 42.6130 -94.1190 89° East 480 552 37,000  Level FlightAware ADS-B
Thu 05:30:11 PM 42.6140 -93.9890 89° East 481 554 37,000  Level FlightAware ADS-B
Thu 05:30:53 PM 42.6150 -93.8620 89° East 483 556 37,000  Level FlightAware ADS-B
Thu 05:31:36 PM 42.6150 -93.7330 90° East 485 558 37,000  Level FlightAware ADS-B
Thu 05:32:17 PM 42.6160 -93.6050 89° East 486 559 37,000  Level FlightAware ADS-B
Thu 05:32:56 PM 42.6160 -93.4900 90° East 486 559 37,000  Level FlightAware ADS-B
Thu 05:33:40 PM 42.6170 -93.3540 89° East 485 558 37,000  Level FlightAware ADS-B
Thu 05:34:21 PM 42.6170 -93.2290 90° East 485 558 37,000  Level FlightAware ADS-B
Thu 05:35:07 PM 42.6170 -93.0890 90° East 484 557 37,000  Level FlightAware ADS-B
Thu 05:36:01 PM 42.6170 -92.9420 90° East 483 556 37,000  Level FlightAware ADS-B
Thu 05:36:43 PM 42.6160 -92.8010 91° East 476 548 37,000  Level FlightAware ADS-B
Thu 05:37:25 PM 42.6160 -92.6770 90° East 472 543 37,000  Level FlightAware ADS-B
Thu 05:38:05 PM 42.6150 -92.5580 91° East 470 541 37,000  Level FlightAware ADS-B
Thu 05:38:51 PM 42.6140 -92.4260 91° East 468 539 37,000  Level FlightAware ADS-B
Thu 05:39:33 PM 42.6130 -92.3000 91° East 467 537 37,000  Level FlightAware ADS-B
Thu 05:40:13 PM 42.6120 -92.1830 91° East 466 536 37,000  Level FlightAware ADS-B
Thu 05:40:54 PM 42.6110 -92.0650 91° East 465 535 37,000  Level FlightAware ADS-B
Thu 05:41:31 PM 42.6100 -91.9560 91° East 465 535 37,000  Level FlightAware ADS-B
Thu 05:42:21 PM 42.6090 -91.8160 91° East 466 536 37,000  Level FlightAware ADS-B
Thu 05:43:01 PM 42.6070 -91.6930 91° East 466 536 37,000  Level FlightAware ADS-B
Thu 05:43:45 PM 42.6060 -91.5660 91° East 467 537 37,000  Level FlightAware ADS-B
Thu 05:44:25 PM 42.6040 -91.4500 91° East 468 539 37,000  Level FlightAware ADS-B
Thu 05:45:05 PM 42.6020 -91.3340 91° East 468 539 37,000  Level FlightAware ADS-B
Thu 05:46:02 PM 42.5990 -91.1660 91° East 469 540 37,000  Level FlightAware ADS-B
Thu 05:46:46 PM 42.5970 -91.0360 91° East 468 539 37,000  Level FlightAware ADS-B
Thu 05:47:26 PM 42.5950 -90.9190 91° East 468 539 37,000  Level FlightAware ADS-B
Thu 05:48:06 PM 42.5920 -90.8020 92° East 468 539 37,000  Level FlightAware ADS-B
Thu 05:48:52 PM 42.5890 -90.6660 92° East 468 539 37,000  Level FlightAware ADS-B
Thu 05:49:32 PM 42.5870 -90.5550 91° East 467 537 37,000  Level FlightAware ADS-B
Thu 05:50:50 PM 42.5810 -90.3240 92° East 467 537 37,000  Level FlightAware ADS-B
Thu 05:51:32 PM 42.5780 -90.2010 92° East 467 537 37,000  Level FlightAware ADS-B
Thu 05:52:12 PM 42.5750 -90.0820 92° East 468 539 37,000  Level FlightAware ADS-B
Thu 05:52:51 PM 42.5720 -89.9670 92° East 468 539 37,000  Level FlightAware ADS-B
Thu 05:53:38 PM 42.5680 -89.8310 92° East 468 539 37,000  Level FlightAware ADS-B
Thu 05:54:18 PM 42.5650 -89.7150 92° East 469 540 37,000  Level FlightAware ADS-B
Thu 05:54:58 PM 42.5610 -89.5980 93° East 470 541 37,000  Level FlightAware ADS-B
Thu 05:55:56 PM 42.5580 -89.5020 92° East 471 542 37,000  Level FlightAware ADS-B
Thu 05:56:38 PM 42.5510 -89.3030 93° East 472 543 37,000  Level FlightAware ADS-B
Thu 05:57:22 PM 42.5470 -89.1720 92° East 473 544 37,000  Level FlightAware ADS-B
Thu 05:58:03 PM 42.5430 -89.0500 93° East 473 544 37,000  Level FlightAware ADS-B
Thu 05:58:46 PM 42.5380 -88.9240 93° East 472 543 37,000  Level FlightAware ADS-B
Thu 05:59:28 PM 42.5330 -88.8010 93° East 472 543 37,000  Level FlightAware ADS-B
Thu 06:00:07 PM 42.5290 -88.6830 93° East 471 542 37,000  Level FlightAware ADS-B
Thu 06:00:52 PM 42.5240 -88.5540 93° East 469 540 37,000  Level FlightAware ADS-B
Thu 06:01:30 PM 42.5190 -88.4410 93° East 469 540 37,000  Level FlightAware ADS-B
Thu 06:02:12 PM 42.5140 -88.3200 93° East 467 537 37,000  Level FlightAware ADS-B
Thu 06:02:57 PM 42.5080 -88.1860 93° East 466 536 37,000  Level FlightAware ADS-B
Thu 06:03:38 PM 42.5030 -88.0700 93° East 465 535 37,000  Level FlightAware ADS-B
Thu 06:04:22 PM 42.5000 -87.9400 92° East 464 534 37,000  Level FlightAware ADS-B
Thu 06:05:03 PM 42.5000 -87.8210 90° East 465 535 37,000  Level FlightAware ADS-B
Thu 06:05:44 PM 42.5000 -87.7050 90° East 465 535 37,000  Level FlightAware ADS-B
Thu 06:06:26 PM 42.4990 -87.5820 91° East 464 534 37,000  Level FlightAware ADS-B
Thu 06:07:10 PM 42.4990 -87.4590 90° East 465 535 37,000  Level FlightAware ADS-B
Thu 06:08:06 PM 42.4980 -87.2920 90° East 464 534 37,000  Level FlightAware ADS-B
Thu 06:08:39 PM 42.4970 -87.1960 91° East 464 534 37,000  Level FlightAware ADS-B
Thu 06:09:26 PM 42.4960 -87.0590 91° East 465 535 37,000  Level FlightAware ADS-B
Thu 06:10:06 PM 42.4950 -86.9450 91° East 468 539 37,000  Level FlightAware ADS-B
Thu 06:10:47 PM 42.4940 -86.8240 91° East 474 545 37,000  Level FlightAware ADS-B
Thu 06:11:32 PM 42.4930 -86.6870 91° East 477 549 37,000  Level FlightAware ADS-B
Thu 06:12:15 PM 42.4920 -86.5900 91° East 478 550 37,000  Level FlightAware ADS-B
Thu 06:12:58 PM 42.4900 -86.4350 91° East 478 550 37,000  Level FlightAware ADS-B
Thu 06:13:41 PM 42.4880 -86.3030 91° East 477 549 37,000  Level FlightAware ADS-B
Thu 06:14:22 PM 42.4860 -86.1810 91° East 476 548 37,000  Level FlightAware ADS-B
Thu 06:15:00 PM 42.4840 -86.0660 91° East 473 544 37,000  Level FlightAware ADS-B
Thu 06:15:47 PM 42.4820 -85.9300 91° East 468 539 37,000  Level FlightAware ADS-B
Thu 06:16:27 PM 42.4800 -85.8140 91° East 465 535 37,000  Level FlightAware ADS-B
Thu 06:17:10 PM 42.4770 -85.6900 92° East 462 532 37,000  Level FlightAware ADS-B
Thu 06:17:52 PM 42.4750 -85.5690 91° East 461 531 37,000  Level FlightAware ADS-B
Thu 06:18:29 PM 42.4730 -85.4610 91° East 460 529 37,000  Level FlightAware ADS-B
Thu 06:19:15 PM 42.4700 -85.3290 92° East 459 528 37,000  Level FlightAware ADS-B
Thu 06:19:57 PM 42.4670 -85.2080 92° East 459 528 37,000  Level FlightAware ADS-B
Thu 06:20:38 PM 42.4640 -85.0950 92° East 458 527 37,000  Level FlightAware ADS-B
Thu 06:21:18 PM 42.4640 -85.0900 90° East 459 528 37,000  Level FlightAware ADS-B
Thu 06:22:05 PM 42.4570 -84.8420 92° East 460 529 37,000  Level FlightAware ADS-B
Thu 06:22:42 PM 42.4540 -84.7360 92° East 461 531 37,000  Level FlightAware ADS-B
Thu 06:23:26 PM 42.4510 -84.6110 92° East 462 532 37,000  Level FlightAware ADS-B
Thu 06:24:10 PM 42.4470 -84.4820 92° East 463 533 37,000  Level FlightAware ADS-B
Thu 06:24:54 PM 42.4430 -84.3560 92° East 463 533 37,000  Level FlightAware ADS-B
Thu 06:25:49 PM 42.4390 -84.2310 92° East 463 533 37,000  Level FlightAware ADS-B
Thu 06:26:29 PM 42.4340 -84.0860 93° East 463 533 37,000  Level FlightAware ADS-B
Thu 06:27:12 PM 42.4300 -83.9580 92° East 464 534 37,000  Level FlightAware ADS-B
Thu 06:27:56 PM 42.4240 -83.8310 94° East 467 537 37,000  Level FlightAware ADS-B
Thu 06:28:32 PM 42.3980 -83.7310 109° East 475 547 37,000  Level FlightAware ADS-B
Thu 06:29:20 PM 42.3380 -83.6160 125° Southeast 476 548 37,000  Level FlightAware ADS-B
Thu 06:30:00 PM 42.2870 -83.5240 127° Southeast 476 548 37,000  Level FlightAware ADS-B
Thu 06:30:24 PM 42.2550 -83.4640 126° Southeast 477 549 37,000  Level FlightAware ADS-B
Thu 06:31:10 PM 42.2080 -83.3440 118° Southeast 471 542 37,000  Level FlightAware ADS-B
Thu 06:32:19 PM 42.2060 -83.2050 91° East 462 532 37,000  Level FlightAware ADS-B
Thu 06:32:59 PM 42.2190 -83.0790 82° East 463 533 37,000  Level FlightAware ADS-B
Thu 06:33:44 PM 42.2320 -82.9480 82° East 465 535 37,000  Level FlightAware ADS-B
Thu 06:34:24 PM 42.2340 -82.8330 89° East 466 536 37,000  Level FlightAware ADS-B
Thu 06:35:51 PM 42.2270 -82.6240 93° East 470 541 37,000  Level FlightAware ADS-B
Thu 06:36:29 PM 42.2170 -82.4500 94° East 470 541 37,000  Level FlightAware ADS-B
Thu 06:37:14 PM 42.2090 -82.2910 94° East 471 542 37,000  Level FlightAware ADS-B
Thu 06:37:56 PM 42.2020 -82.1710 94° East 473 544 37,000  Level FlightAware ADS-B
Thu 06:38:42 PM 42.1940 -82.0320 94° East 474 545 37,000  Level FlightAware ADS-B
Thu 06:39:24 PM 42.1860 -81.9090 95° East 476 548 37,000  Level FlightAware ADS-B
Thu 06:39:57 PM 42.1800 -81.8100 95° East 476 548 37,000  Level FlightAware ADS-B
Thu 06:40:43 PM 42.1720 -81.6770 95° East 475 547 37,000  Level FlightAware ADS-B
Thu 06:41:29 PM 42.1640 -81.5580 95° East 476 548 37,000  Level FlightAware ADS-B
Thu 06:42:06 PM 42.1570 -81.4510 95° East 477 549 37,000  Level FlightAware ADS-B
Thu 06:42:40 PM 42.1490 -81.3260 95° East 477 549 37,000  Level FlightAware ADS-B
Thu 06:43:19 PM 42.1410 -81.2130 95° East 478 550 37,000  Level FlightAware ADS-B
Thu 06:44:03 PM 42.1330 -81.0830 95° East 480 552 37,000  Level FlightAware ADS-B
Thu 06:44:45 PM 42.1240 -80.9640 96° East 480 552 37,000  Level FlightAware ADS-B
Thu 06:45:29 PM 42.1170 -80.8550 95° East 479 551 37,000  Level FlightAware ADS-B
Thu 06:46:01 PM 42.1080 -80.7370 96° East 479 551 37,000  Level FlightAware ADS-B
Thu 06:46:49 PM 42.0990 -80.6020 95° East 479 551 37,000  Level FlightAware ADS-B
Thu 06:47:31 PM 42.0890 -80.4710 96° East 480 552 37,000  Level FlightAware ADS-B
Thu 06:48:11 PM 42.0800 -80.3540 96° East 480 552 37,000  Level FlightAware ADS-B
Thu 06:48:52 PM 42.0710 -80.2350 96° East 480 552 37,000  Level FlightAware ADS-B
Thu 06:49:51 PM 42.0580 -80.0650 96° East 481 554 37,000  Level FlightAware ADS-B
Thu 06:50:31 PM 42.0480 -79.9340 96° East 482 555 37,000  Level FlightAware ADS-B
Thu 06:51:16 PM 42.0370 -79.8000 96° East 482 555 37,000  Level FlightAware ADS-B
Thu 06:51:56 PM 42.0280 -79.6850 96° East 483 556 37,000  Level FlightAware ADS-B
Thu 06:52:56 PM 42.0140 -79.5060 96° East 485 558 37,000  Level FlightAware ADS-B
Thu 06:53:31 PM 42.0050 -79.3990 96° East 488 562 37,000  Level FlightAware ADS-B
Thu 06:54:21 PM 41.9920 -79.2460 96° East 491 565 37,000  Level FlightAware ADS-B
Thu 06:54:56 PM 41.9840 -79.1530 97° East 492 566 37,000  Level FlightAware ADS-B
Thu 06:55:31 PM 41.9740 -79.0340 96° East 494 568 37,000  Level FlightAware ADS-B
Thu 06:56:17 PM 41.9620 -78.8960 97° East 495 570 37,000  Level FlightAware ADS-B
Thu 06:57:12 PM 41.9470 -78.7280 97° East 498 573 37,000  Level FlightAware ADS-B
Thu 06:57:51 PM 41.9360 -78.6050 97° East 500 575 37,000  Level FlightAware ADS-B
Thu 06:58:36 PM 41.9240 -78.4710 97° East 501 577 37,000  Level FlightAware ADS-B
Thu 06:59:16 PM 41.9130 -78.3600 98° East 502 578 37,000  Level FlightAware ADS-B
Thu 06:59:56 PM 41.9010 -78.2250 97° East 504 580 37,000  Level FlightAware ADS-B
Thu 07:00:46 PM 41.8860 -78.0660 97° East 505 581 37,000  Level FlightAware ADS-B
Thu 07:01:27 PM 41.8740 -77.9420 97° East 506 582 37,000  Level FlightAware ADS-B
Thu 07:02:01 PM 41.8610 -77.8470 100° East 505 581 37,000  Level FlightAware ADS-B
Thu 07:02:46 PM 41.8260 -77.7000 108° East 505 581 37,000  Level FlightAware ADS-B
Thu 07:03:32 PM 41.7910 -77.5690 110° East 505 581 37,000  Level FlightAware ADS-B
Thu 07:04:12 PM 41.7600 -77.4540 110° East 505 581 37,000  Level FlightAware ADS-B
Thu 07:04:56 PM 41.7250 -77.3250 110° East 505 581 37,000 -439 Level FlightAware ADS-B
Thu 07:05:34 PM 41.6930 -77.2040 109° East 503 579 36,400 -1,129 Descending FlightAware ADS-B
Thu 07:06:21 PM 41.6560 -77.0700 110° East 507 583 35,400 -1,024 Descending FlightAware ADS-B
Thu 07:06:56 PM 41.6310 -76.9740 109° East 511 588 35,000 -300 Descending FlightAware ADS-B
Thu 07:07:41 PM 41.5920 -76.8300 110° East 511 588 35,000  Level FlightAware ADS-B
Thu 07:08:24 PM 41.5600 -76.7130 110° East 505 581 35,000  Level FlightAware ADS-B
Thu 07:08:41 PM 41.5421 -76.6494 111° Southeast 506 582 35,000  Level FlightAware ADS-B
Thu 07:09:12 PM 41.5172 -76.5594 110° East 501 577 35,000  Level FlightAware ADS-B
Thu 07:09:43 PM 41.4929 -76.4715 110° East 498 573 35,000  Level FlightAware ADS-B
Thu 07:10:14 PM 41.4681 -76.3819 110° East 495 570 35,000  Level FlightAware ADS-B
Thu 07:10:45 PM 41.4438 -76.2948 110° East 494 568 35,000  Level FlightAware ADS-B
Thu 07:11:18 PM 41.4175 -76.2006 110° East 492 566 35,000  Level FlightAware ADS-B
Thu 07:11:51 PM 41.3912 -76.1069 110° East 492 566 35,000  Level FlightAware ADS-B
Thu 07:12:24 PM 41.3650 -76.0136 110° East 491 565 35,000 -190 Level FlightAware ADS-B
Thu 07:12:54 PM 41.3409 -75.9285 111° Southeast 488 562 34,800 -1,180 Descending FlightAware ADS-B
Thu 07:13:25 PM 41.3168 -75.8436 111° Southeast 489 563 33,800 -2,613 Descending FlightAware ADS-B
Thu 07:13:56 PM 41.2915 -75.7545 111° Southeast 495 570 32,100 -3,290 Descending FlightAware ADS-B
Thu 07:14:27 PM 41.2655 -75.6685 112° Southeast 496 571 30,400 -3,541 Descending FlightAware ADS-B
Thu 07:14:57 PM 41.2381 -75.5844 113° Southeast 501 577 28,500 -4,000 Descending FlightAware ADS-B
Thu 07:15:27 PM 41.2096 -75.4996 114° Southeast 509 586 26,400 -3,882 Descending FlightAware ADS-B
Thu 07:16:05 PM 41.1727 -75.3896 114° Southeast 508 585 24,100 -2,712 Descending FlightAware ADS-B
Thu 07:16:40 PM 41.1398 -75.2918 114° Southeast 497 572 23,100 -985 Descending FlightAware ADS-B
Thu 07:17:12 PM 41.1104 -75.2047 114° Southeast 496 571 23,000 -97 Descending FlightAware ADS-B
Thu 07:17:42 PM 41.0821 -75.1215 114° Southeast 499 574 23,000  Level FlightAware ADS-B
Thu 07:18:10 PM 41.0549 -75.0407 114° Southeast 503 579 23,000 -143 Level FlightAware ADS-B
Thu 07:18:24 PM 41.0448 -75.0020 109° East 505 581 22,900 -1,375 Descending FlightAware ADS-B
Thu 07:18:58 PM 41.0239 -74.9009 105° East 499 574 21,900 -2,000 Descending FlightAware ADS-B
Thu 07:19:30 PM 41.0050 -74.8091 105° East 481 554 20,700 -2,381 Descending FlightAware ADS-B
Thu 07:20:01 PM 40.9858 -74.7220 106° East 474 545 19,400 -1,645 Descending FlightAware ADS-B
Thu 07:20:32 PM 40.9662 -74.6371 107° East 473 544 19,000 -462 Descending FlightAware ADS-B
Thu 07:20:53 PM 40.9527 -74.5796 107° East 472 543 19,000  Level FlightAware ADS-B
Thu 07:21:02 PM 40.9463 -74.5526 107° East 473 544 19,000  Level FlightAware ADS-B
Thu 07:21:24 PM 40.9321 -74.4927 107° East 473 544 19,000  Level FlightAware ADS-B
Thu 07:21:33 PM 40.9265 -74.4688 107° East 473 544 19,000  Level FlightAware ADS-B
Thu 07:22:09 PM 40.9030 -74.3699 107° East 473 544 19,000  Level FlightAware ADS-B
Thu 07:22:40 PM 40.8825 -74.2841 108° East 472 543 19,000  Level FlightAware ADS-B
Thu 07:23:10 PM 40.8619 -74.2015 108° East 469 540 19,000  Level FlightAware ADS-B
Thu 07:23:19 PM 40.8535 -74.1780 115° Southeast 462 532 19,000  Level FlightAware ADS-B
Thu 07:23:31 PM 40.8412 -74.1517 122° Southeast 447 514 19,000  Level FlightAware ADS-B
Thu 07:23:32 PM 40.8400 -74.1495 126° Southeast 445 512 19,000  Level FlightAware ADS-B
Thu 07:23:42 PM 40.8273 -74.1289 129° Southeast 432 497 19,000  Level FlightAware ADS-B
Thu 07:23:46 PM 40.8213 -74.1206 134° Southeast 424 488 19,000  Level FlightAware ADS-B
Thu 07:23:50 PM 40.8160 -74.1141 137° Southeast 420 483 19,000  Level FlightAware ADS-B
Thu 07:24:04 PM 40.7953 -74.0922 141° Southeast 401 461 19,000  Level FlightAware ADS-B
Thu 07:24:19 PM 40.7730 -74.0707 144° Southeast 383 441 19,000 -545 Level FlightAware ADS-B
Thu 07:24:37 PM 40.7476 -74.0461 144° Southeast 375 432 18,700 -1,000 Descending FlightAware ADS-B
Thu 07:24:49 PM 40.7303 -74.0309 146° Southeast 366 421 18,500 -1,224 Descending FlightAware ADS-B
Thu 07:25:26 PM 40.6742 -74.0039 160° South 345 397 17,700 -1,612 Descending FlightAware ADS-B
Thu 07:25:56 PM 40.6287 -73.9851 163° South 342 394 16,700 -1,833 Descending FlightAware ADS-B
Thu 07:26:02 PM 40.6193 -73.9813 163° South 343 395 16,600 -1,650 Descending FlightAware ADS-B
Thu 07:26:36 PM 40.5697 -73.9620 164° South 331 381 15,600 -1,781 Descending FlightAware ADS-B
Thu 07:27:06 PM 40.5252 -73.9454 164° South 324 373 14,700 -1,770 Descending FlightAware ADS-B
Thu 07:27:37 PM 40.4817 -73.9295 164° South 321 369 13,800 -1,731 Descending FlightAware ADS-B
Thu 07:27:58 PM 40.4516 -73.9184 164° South 321 369 13,200 -1,714 Descending FlightAware ADS-B
Thu 07:28:05 PM 40.4420 -73.9136 159° South 323 372 13,000 -1,286 Descending FlightAware ADS-B
Thu 07:28:12 PM 40.4332 -73.9070 150° Southeast 323 372 12,900 -1,385 Descending FlightAware ADS-B
Thu 07:28:18 PM 40.4252 -73.8984 141° Southeast 323 372 12,700 -1,636 Descending FlightAware ADS-B
Thu 07:28:23 PM 40.4207 -73.8920 133° Southeast 322 371 12,600 -1,200 Descending FlightAware ADS-B
Thu 07:28:28 PM 40.4161 -73.8837 126° Southeast 322 371 12,500 -1,622 Descending FlightAware ADS-B
Thu 07:29:00 PM 40.3941 -73.8296 118° Southeast 321 369 11,600 -1,429 Descending FlightAware ADS-B
Thu 07:29:31 PM 40.3730 -73.7759 117° Southeast 313 360 11,000 -1,184 Descending FlightAware ADS-B
Thu 07:30:16 PM 40.3447 -73.7008 116° Southeast 304 350 10,100 -1,309 Descending FlightAware ADS-B
Thu 07:30:26 PM 40.3401 -73.6835 109° East 303 349 9,800 -1,600 Descending FlightAware ADS-B
Thu 07:30:31 PM 40.3392 -73.6741 97° East 303 349 9,700 -667 Descending FlightAware ADS-B
Thu 07:30:35 PM 40.3391 -73.6665 91° East 301 346 9,700 -1,235 Level FlightAware ADS-B
Thu 07:31:05 PM 40.3567 -73.6212 63° Northeast 292 336 9,000 -1,444 Descending FlightAware ADS-B
Thu 07:31:29 PM 40.3837 -73.5997 31° Northeast 285 328 8,400 -1,463 Descending FlightAware ADS-B
Thu 07:31:46 PM 40.4035 -73.5856 28° Northeast 283 326 8,000 -1,588 Descending FlightAware ADS-B
Thu 07:32:03 PM 40.4237 -73.5714 28° Northeast 283 326 7,500 -1,600 Descending FlightAware ADS-B
Thu 07:32:31 PM 40.4561 -73.5490 28° Northeast 284 327 6,800 -1,000 Descending FlightAware ADS-B
Thu 07:32:51 PM 40.4789 -73.5330 28° Northeast 290 334 6,700 -158 Descending FlightAware ADS-B
Thu 07:33:09 PM 40.5003 -73.5180 28° Northeast 289 333 6,700 -476 Level FlightAware ADS-B
Thu 07:33:54 PM 40.5530 -73.4810 28° Northeast 280 322 6,200 -870 Descending FlightAware ADS-B
Thu 07:34:18 PM 40.5800 -73.4610 29° Northeast 273 314 5,700 -1,418 Descending FlightAware ADS-B
Thu 07:34:49 PM 40.6130 -73.4360 30° Northeast 268 308 4,900 -1,500 Descending FlightAware ADS-B
Thu 07:35:14 PM 40.6410 -73.4160 28° Northeast 270 311 4,300 -911 Descending FlightAware ADS-B
Thu 07:36:08 PM 40.7010 -73.4180 359° North 258 297 3,700 -500 Descending FlightAware ADS-B
Thu 07:36:38 PM 40.7200 -73.4550 304° West 253 291 3,600 -621 Descending FlightAware ADS-B
Thu 07:37:06 PM 40.7370 -73.4950 299° West 253 291 3,100 -1,227 Descending FlightAware ADS-B
Thu 07:37:22 PM 40.7450 -73.5160 297° West 244 281 2,700 -698 Descending FlightAware ADS-B
Thu 07:37:49 PM 40.7590 -73.5470 301° West 212 244 2,600 -453 Descending FlightAware ADS-B
Thu 07:38:15 PM 40.7740 -73.5720 308° West 195 224 2,300 -632 Descending FlightAware ADS-B
Thu 07:38:46 PM 40.7920 -73.5990 311° West 188 216 2,000 -649 Descending FlightAware ADS-B
Thu 07:38:52 PM 40.7940 -73.6050 294° West 182 209 1,900 -692 Descending FlightAware ADS-B
Thu 07:39:12 PM 40.7920 -73.6250 262° West 172 198 1,700 -375 Descending FlightAware ADS-B
Thu 07:39:24 PM 40.7870 -73.6370 241° Southwest 166 191 1,700  Level FlightAware ADS-B
Thu 07:39:42 PM 40.7790 -73.6480 226° Southwest 148 170 1,700  Level FlightAware ADS-B
Thu 07:40:12 PM 40.7620 -73.6640 215° Southwest 146 168 1,700 -222 Level FlightAware ADS-B
Thu 07:41:30 PM 40.7160 -73.7000 211° Southwest 143 165 1,300 -333 Descending FlightAware ADS-B
Thu 07:41:42 PM 40.7090 -73.7050 208° Southwest 135 155 1,200 -558 Descending FlightAware ADS-B
Thu 07:42:13 PM 40.6940 -73.7170 211° Southwest 115 132 900 -643 Descending FlightAware ADS-B
Thu 07:42:38 PM 40.6830 -73.7250 209° Southwest 120 138 600 -679 Descending FlightAware ADS-B
Thu 07:43:06 PM 40.6690 -73.7360 211° Southwest 123 142 300 -643 Descending FlightAware ADS-B
Thu 07:43:37 PM 40.6540 -73.7480 211° Southwest 124 143 -581 Descending FlightAware ADS-B
Thu 07:43:47 PM 40.6490 -73.7520 211° Southwest 125 144  Level FlightAware ADS-B
Thu 07:44:17 PM 40.6350 -73.7630 211° Southwest 90 104  Level FlightAware ADS-B
Thu 07:44:39 PM 40.6300 -73.7670 211° Southwest 33 38  Level FlightAware ADS-B
Thu 07:44:55 PM 40.6290 -73.7690 237° Southwest 18 21  Level FlightAware ADS-B
Thu 07:45:42 PM 40.6330 -73.7690 360° North 17 20  Level FlightAware ADS-B

Login

Don't have an account? Register now (free) for customized features, flight alerts, and more!